Time;durP1;ratioP1;P1;durP2;ratioP2;P2;SDS_P1;SDS_P2;PMS_P1;PMS_P2;Temp;Humidity;BMP_temperature;BMP_pressure;BME280_temperature;BME280_humidity;BME280_pressure;Samples;Min_cycle;Max_cycle;Signal;HPM_P1;HPM_P2
2023/08/06 00:00:45;;;;;;;10.13;7.55;;;538.20;2406.40;;;;;;5110377;28;20023;-77
2023/08/06 00:03:11;;;;;;;10.70;6.47;;;538.20;2406.40;;;;;;5076134;28;20020;-78
2023/08/06 00:05:36;;;;;;;12.02;6.55;;;538.10;2406.40;;;;;;5072584;28;20534;-78
2023/08/06 00:08:02;;;;;;;9.07;6.18;;;538.10;2406.40;;;;;;5072913;28;20384;-79
2023/08/06 00:10:28;;;;;;;6.78;4.50;;;538.20;2406.40;;;;;;5071739;28;20032;-77
2023/08/06 00:12:54;;;;;;;7.32;4.45;;;538.20;2406.40;;;;;;5071658;28;20037;-79
2023/08/06 00:15:20;;;;;;;6.45;4.13;;;538.20;2406.40;;;;;;5072870;28;20024;-80
2023/08/06 00:17:46;;;;;;;5.80;3.60;;;538.30;2406.40;;;;;;5071476;28;20035;-80
2023/08/06 00:20:12;;;;;;;6.43;4.40;;;538.00;2406.40;;;;;;5071810;28;20111;-78
2023/08/06 00:22:38;;;;;;;7.50;5.22;;;538.00;2406.40;;;;;;5071446;28;20112;-79
2023/08/06 00:25:05;;;;;;;9.35;5.95;;;537.90;2406.40;;;;;;5085577;28;20024;-78
2023/08/06 00:27:32;;;;;;;7.28;5.07;;;537.60;2406.40;;;;;;5072483;28;20043;-81
2023/08/06 00:29:58;;;;;;;9.57;5.32;;;537.90;2406.40;;;;;;5072332;28;20025;-80
2023/08/06 00:32:24;;;;;;;6.28;4.53;;;537.90;2406.40;;;;;;5080504;28;20089;-80
2023/08/06 00:34:50;;;;;;;9.02;5.15;;;537.70;2406.40;;;;;;5078330;28;20456;-79
2023/08/06 00:37:19;;;;;;;6.07;4.82;;;538.00;2406.40;;;;;;5071454;28;20028;-81
2023/08/06 00:39:45;;;;;;;9.63;4.95;;;538.00;2406.40;;;;;;5071687;28;20035;-80
2023/08/06 00:42:11;;;;;;;7.00;4.60;;;537.90;2406.40;;;;;;5071956;28;20473;-80
2023/08/06 00:44:38;;;;;;;6.22;4.70;;;538.00;2406.40;;;;;;5071561;28;20041;-79
2023/08/06 00:47:05;;;;;;;7.30;5.47;;;538.00;2406.40;;;;;;5075096;28;20037;-79
2023/08/06 00:49:31;;;;;;;8.63;6.47;;;538.20;2406.40;;;;;;5085115;28;20020;-79
2023/08/06 00:51:58;;;;;;;12.55;5.20;;;537.90;2406.40;;;;;;5080131;28;20035;-78
2023/08/06 00:54:24;;;;;;;8.00;6.28;;;538.00;2406.40;;;;;;5076162;28;20016;-78
2023/08/06 00:56:50;;;;;;;10.45;7.50;;;538.20;2406.40;;;;;;5078701;28;20526;-79
2023/08/06 00:59:16;;;;;;;9.43;6.88;;;538.10;2406.40;;;;;;5084562;28;20028;-80
2023/08/06 01:01:42;;;;;;;9.68;6.28;;;538.00;2406.40;;;;;;5096499;28;20028;-77
2023/08/06 01:04:08;;;;;;;12.90;7.13;;;538.00;2406.40;;;;;;5096688;28;20032;-78
2023/08/06 01:06:56;;;;;;;8.85;7.38;;;538.10;2406.40;;;;;;5096051;28;20099;-79
2023/08/06 01:09:45;;;;;;;9.50;7.45;;;538.10;2406.40;;;;;;5095322;28;20379;-77
2023/08/06 01:12:13;;;;;;;10.27;7.82;;;537.90;2406.40;;;;;;5083931;28;20021;-80
2023/08/06 01:14:56;;;;;;;11.50;8.13;;;538.00;2406.40;;;;;;5074556;28;20134;-78
2023/08/06 01:17:26;;;;;;;11.25;8.35;;;537.90;2406.40;;;;;;5082240;28;20040;-77
2023/08/06 01:19:52;;;;;;;13.63;9.30;;;538.00;2406.40;;;;;;5096407;28;20027;-77
2023/08/06 01:22:18;;;;;;;12.48;10.07;;;537.60;2406.40;;;;;;5094854;28;20028;-79
2023/08/06 01:24:48;;;;;;;15.32;9.75;;;512.90;2380.80;;;;;;5095933;28;20056;-77
2023/08/06 01:27:38;;;;;;;13.77;9.05;;;537.90;2406.40;;;;;;5094003;28;20036;-79
2023/08/06 01:30:07;;;;;;;11.43;9.05;;;537.90;2406.40;;;;;;5095036;28;20119;-79
2023/08/06 01:32:37;;;;;;;12.57;9.90;;;538.00;2406.40;;;;;;5095003;28;20036;-79
2023/08/06 01:35:04;;;;;;;12.63;9.57;;;538.00;2406.40;;;;;;5094527;28;20028;-81
2023/08/06 01:37:31;;;;;;;11.23;8.95;;;538.10;2406.40;;;;;;5094688;28;20028;-79
2023/08/06 01:39:57;;;;;;;12.77;8.75;;;538.10;2406.40;;;;;;5094692;28;20376;-77
2023/08/06 01:42:23;;;;;;;9.77;8.75;;;538.30;2406.40;;;;;;5094450;28;20452;-78
2023/08/06 01:44:48;;;;;;;13.07;8.32;;;537.90;2406.40;;;;;;5094661;28;20031;-77
2023/08/06 01:47:14;;;;;;;14.98;8.77;;;538.00;2406.40;;;;;;5094615;28;20392;-79
2023/08/06 01:49:40;;;;;;;9.43;7.40;;;537.90;2406.40;;;;;;5093128;28;20064;-77
2023/08/06 01:52:06;;;;;;;10.27;7.43;;;538.00;2406.40;;;;;;5093460;28;20036;-77
2023/08/06 01:54:32;;;;;;;13.18;7.75;;;538.00;2406.40;;;;;;5093328;28;20043;-78
2023/08/06 01:56:58;;;;;;;10.93;8.00;;;538.00;2406.40;;;;;;5076186;28;20032;-78
2023/08/06 01:59:24;;;;;;;12.70;7.68;;;538.20;2406.40;;;;;;5093216;28;20020;-77
2023/08/06 02:01:50;;;;;;;9.73;7.90;;;538.10;2406.40;;;;;;5092307;28;20055;-77
2023/08/06 02:04:15;;;;;;;11.55;7.78;;;538.00;2406.40;;;;;;5092679;28;20081;-77
2023/08/06 02:06:41;;;;;;;15.23;8.55;;;538.00;2406.40;;;;;;5093036;28;20035;-77
2023/08/06 02:09:07;;;;;;;10.68;7.85;;;538.00;2406.40;;;;;;5092602;28;20057;-77
2023/08/06 02:11:33;;;;;;;10.90;8.82;;;537.90;2406.40;;;;;;5093089;28;20067;-78
2023/08/06 02:13:58;;;;;;;11.90;8.30;;;537.90;2406.40;;;;;;5092595;28;20067;-80
2023/08/06 02:16:24;;;;;;;12.45;7.97;;;537.90;2406.40;;;;;;5092506;28;20036;-77
2023/08/06 02:18:50;;;;;;;9.02;7.28;;;537.90;2406.40;;;;;;5092932;28;20432;-77
2023/08/06 02:21:16;;;;;;;11.07;8.20;;;537.90;2406.40;;;;;;5092677;28;20059;-78
2023/08/06 02:23:41;;;;;;;9.13;6.28;;;538.00;2406.40;;;;;;5092345;28;20024;-79
2023/08/06 02:26:07;;;;;;;18.33;7.82;;;538.00;2406.40;;;;;;5092710;28;20028;-81
2023/08/06 02:28:33;;;;;;;10.77;6.80;;;537.80;2406.40;;;;;;5093625;28;20051;-79
2023/08/06 02:30:59;;;;;;;10.57;7.03;;;537.80;2406.40;;;;;;5093699;28;20028;-78
2023/08/06 02:33:24;;;;;;;13.35;7.78;;;537.90;2406.40;;;;;;5094611;28;20517;-77
2023/08/06 02:35:50;;;;;;;11.13;6.00;;;537.90;2406.40;;;;;;5093533;28;20056;-79
2023/08/06 02:38:16;;;;;;;7.55;5.32;;;537.90;2406.40;;;;;;5093205;28;20024;-81
2023/08/06 02:40:46;;;;;;;7.00;4.60;;;538.00;2406.40;;;;;;5093478;28;20028;-79
2023/08/06 02:43:12;;;;;;;5.95;4.65;;;537.90;2406.40;;;;;;5094788;28;20081;-78
2023/08/06 02:45:38;;;;;;;7.72;5.18;;;537.80;2406.40;;;;;;5093328;28;20024;-81
2023/08/06 02:48:05;;;;;;;7.65;4.63;;;537.80;2406.40;;;;;;5094328;28;20492;-79
2023/08/06 02:50:30;;;;;;;6.65;4.35;;;537.60;2406.40;;;;;;5093296;28;20077;-77
2023/08/06 02:52:56;;;;;;;5.68;3.70;;;537.90;2406.40;;;;;;5093026;28;20023;-77
2023/08/06 02:55:22;;;;;;;6.50;4.32;;;537.90;2406.40;;;;;;5093165;28;20028;-79
2023/08/06 02:57:48;;;;;;;6.68;4.22;;;537.80;2406.40;;;;;;5093178;28;20486;-78
2023/08/06 03:00:13;;;;;;;6.45;4.20;;;537.90;2406.40;;;;;;5117435;28;20032;-78
2023/08/06 03:02:39;;;;;;;8.55;3.97;;;537.90;2406.40;;;;;;5098354;28;20028;-77
2023/08/06 03:05:06;;;;;;;6.93;3.88;;;537.80;2406.40;;;;;;5095358;28;20410;-76
2023/08/06 03:07:33;;;;;;;8.80;3.97;;;537.80;2406.40;;;;;;5094650;28;20352;-77
2023/08/06 03:10:01;;;;;;;9.88;5.10;;;537.90;2406.40;;;;;;5092160;28;20020;-79
2023/08/06 03:12:27;;;;;;;7.78;5.70;;;537.90;2406.40;;;;;;5093777;28;20405;-78
2023/08/06 03:14:53;;;;;;;9.27;5.85;;;538.00;2406.40;;;;;;5092765;28;20087;-79
2023/08/06 03:17:19;;;;;;;8.45;6.07;;;538.10;2406.40;;;;;;5094186;28;20077;-78
2023/08/06 03:19:45;;;;;;;8.45;5.15;;;538.10;2406.40;;;;;;5092657;28;20035;-77
2023/08/06 03:22:10;;;;;;;12.40;5.72;;;537.90;2406.40;;;;;;5093885;28;20436;-77
2023/08/06 03:24:36;;;;;;;12.25;5.95;;;537.80;2406.40;;;;;;5092750;28;20472;-76
2023/08/06 03:27:02;;;;;;;7.25;6.07;;;537.60;2406.40;;;;;;5093495;28;20039;-78
2023/08/06 03:29:28;;;;;;;8.85;6.18;;;537.70;2406.40;;;;;;5092735;28;20031;-79
2023/08/06 03:31:53;;;;;;;10.75;7.00;;;512.90;2380.80;;;;;;5092789;28;20490;-77
2023/08/06 03:34:19;;;;;;;8.55;6.78;;;512.80;2380.80;;;;;;5092406;28;20376;-77
2023/08/06 03:36:45;;;;;;;11.18;7.25;;;512.90;2380.80;;;;;;5092543;28;20032;-78
2023/08/06 03:39:11;;;;;;;7.90;5.35;;;537.60;2406.40;;;;;;5093600;28;20109;-78
2023/08/06 03:41:37;;;;;;;7.28;5.95;;;537.70;2406.40;;;;;;5092573;28;20161;-78
2023/08/06 03:44:03;;;;;;;8.40;5.55;;;537.80;2406.40;;;;;;5092539;28;20482;-80
2023/08/06 03:46:33;;;;;;;11.00;7.20;;;537.80;2406.40;;;;;;5092696;28;20028;-78
2023/08/06 03:49:02;;;;;;;10.15;5.90;;;537.80;2406.40;;;;;;5093499;28;20024;-79
2023/08/06 03:51:28;;;;;;;13.30;6.85;;;537.90;2406.40;;;;;;5093797;28;20028;-79
2023/08/06 03:53:54;;;;;;;9.05;6.53;;;538.00;2406.40;;;;;;5092471;28;20036;-77
2023/08/06 03:56:20;;;;;;;10.10;6.63;;;537.80;2406.40;;;;;;5092184;28;20028;-79
2023/08/06 03:58:45;;;;;;;12.00;6.70;;;537.90;2406.40;;;;;;5092356;28;20031;-78
2023/08/06 04:01:11;;;;;;;12.18;6.60;;;537.90;2406.40;;;;;;5092182;28;20058;-81
2023/08/06 04:03:37;;;;;;;9.25;6.35;;;538.00;2406.40;;;;;;5093689;28;20050;-78
2023/08/06 04:06:04;;;;;;;8.82;6.07;;;538.00;2406.40;;;;;;5093774;28;20456;-78
2023/08/06 04:08:30;;;;;;;10.68;6.63;;;538.00;2406.40;;;;;;5092181;28;20059;-77
2023/08/06 04:10:55;;;;;;;8.57;6.63;;;538.00;2406.40;;;;;;5093477;28;20047;-79
2023/08/06 04:13:21;;;;;;;9.63;6.85;;;537.80;2406.40;;;;;;5092836;28;20036;-79
2023/08/06 04:15:47;;;;;;;10.30;7.63;;;537.60;2406.40;;;;;;5093359;28;20409;-79
2023/08/06 04:18:13;;;;;;;17.38;8.48;;;512.90;2380.80;;;;;;5092311;28;20028;-78
2023/08/06 04:20:46;;;;;;;9.20;8.18;;;512.90;2380.80;;;;;;5092870;28;20069;-77
2023/08/06 04:23:12;;;;;;;12.75;7.85;;;512.60;2380.80;;;;;;5097237;28;20487;-78
2023/08/06 04:25:38;;;;;;;12.27;7.50;;;512.40;2380.80;;;;;;5096156;28;20076;-80
2023/08/06 04:28:05;;;;;;;10.82;7.15;;;512.30;2380.80;;;;;;5096196;28;20035;-81
2023/08/06 04:30:30;;;;;;;13.13;8.30;;;512.50;2380.80;;;;;;5095786;28;20525;-79
2023/08/06 04:32:59;;;;;;;10.52;8.05;;;512.70;2380.80;;;;;;5096192;28;20070;-80
2023/08/06 04:35:25;;;;;;;11.95;7.85;;;512.90;2380.80;;;;;;5096064;28;20047;-78
2023/08/06 04:37:51;;;;;;;10.80;7.65;;;512.90;2380.80;;;;;;5095786;28;20117;-79
2023/08/06 04:40:17;;;;;;;9.13;6.88;;;512.90;2380.80;;;;;;5095875;28;20028;-78
2023/08/06 04:42:42;;;;;;;9.40;6.90;;;512.80;2380.80;;;;;;5095988;28;20081;-79
2023/08/06 04:45:09;;;;;;;10.30;6.40;;;512.80;2380.80;;;;;;5096532;28;20035;-79
2023/08/06 04:47:34;;;;;;;9.10;7.30;;;512.90;2380.80;;;;;;5096905;28;20415;-77
2023/08/06 04:50:01;;;;;;;11.93;7.00;;;512.90;2380.80;;;;;;5095722;28;20049;-78
2023/08/06 04:52:28;;;;;;;8.60;7.38;;;512.90;2380.80;;;;;;5095540;28;20024;-78
2023/08/06 04:54:54;;;;;;;12.32;8.60;;;512.90;2380.80;;;;;;5095677;28;20030;-80
2023/08/06 04:57:21;;;;;;;10.07;8.60;;;512.90;2380.80;;;;;;5086069;28;20040;-79
2023/08/06 04:59:46;;;;;;;8.75;7.00;;;512.90;2380.80;;;;;;5075326;28;20025;-78
2023/08/06 05:02:12;;;;;;;8.75;7.07;;;512.90;2380.80;;;;;;5076892;28;20021;-77
2023/08/06 05:04:39;;;;;;;9.35;7.72;;;512.90;2380.80;;;;;;5091379;28;20055;-77
2023/08/06 05:07:06;;;;;;;10.93;8.48;;;512.80;2380.80;;;;;;5094922;28;20079;-78
2023/08/06 05:09:32;;;;;;;11.98;9.18;;;512.60;2380.80;;;;;;5095440;28;20069;-80
2023/08/06 05:12:00;;;;;;;10.93;9.15;;;512.70;2380.80;;;;;;5093739;28;20071;-79
2023/08/06 05:14:26;;;;;;;8.27;7.20;;;512.80;2380.80;;;;;;5095987;28;20044;-79
2023/08/06 05:16:51;;;;;;;7.80;6.78;;;512.80;2380.80;;;;;;5095240;28;20043;-78
2023/08/06 05:19:17;;;;;;;8.52;6.40;;;512.90;2380.80;;;;;;5094866;28;20031;-79
2023/08/06 05:21:43;;;;;;;8.82;6.20;;;512.90;2380.80;;;;;;5095066;28;20020;-80
2023/08/06 05:24:09;;;;;;;9.13;6.57;;;537.60;2406.40;;;;;;5095122;28;20138;-77
2023/08/06 05:26:34;;;;;;;7.68;6.03;;;537.60;2406.40;;;;;;5095924;28;20028;-78
2023/08/06 05:29:01;;;;;;;8.25;6.40;;;512.90;2380.80;;;;;;5094953;28;20028;-78
2023/08/06 05:31:28;;;;;;;8.93;6.82;;;537.80;2406.40;;;;;;5094725;28;20474;-80
2023/08/06 05:33:54;;;;;;;9.95;7.22;;;537.70;2406.40;;;;;;5093472;28;20720;-78
2023/08/06 05:36:21;;;;;;;7.90;7.10;;;537.80;2406.40;;;;;;5094736;28;20102;-77
2023/08/06 05:38:47;;;;;;;9.13;7.85;;;537.80;2406.40;;;;;;5094755;28;20476;-79
2023/08/06 05:41:13;;;;;;;10.07;8.10;;;537.90;2406.40;;;;;;5094539;28;20028;-78
2023/08/06 05:43:39;;;;;;;10.23;9.10;;;538.00;2406.40;;;;;;5094872;28;20455;-78
2023/08/06 05:46:05;;;;;;;10.48;8.50;;;538.00;2406.40;;;;;;5095371;28;20032;-79
2023/08/06 05:48:31;;;;;;;12.45;8.63;;;537.90;2406.40;;;;;;5096291;28;20373;-79
2023/08/06 05:50:58;;;;;;;12.73;8.32;;;537.80;2406.40;;;;;;5095606;28;20114;-80
2023/08/06 05:53:24;;;;;;;10.32;8.80;;;537.80;2406.40;;;;;;5094016;28;20089;-77
2023/08/06 05:55:50;;;;;;;10.93;8.52;;;537.80;2406.40;;;;;;5094162;28;20073;-78
2023/08/06 05:58:16;;;;;;;14.02;9.85;;;512.90;2380.80;;;;;;5102150;28;20035;-81
2023/08/06 06:00:42;;;;;;;15.68;9.32;;;512.90;2380.80;;;;;;5117774;28;20052;-79
2023/08/06 06:03:08;;;;;;;14.98;10.05;;;512.90;2380.80;;;;;;5094933;28;20027;-79
2023/08/06 06:05:33;;;;;;;13.40;10.60;;;537.60;2406.40;;;;;;5095093;28;20055;-78
2023/08/06 06:07:59;;;;;;;10.80;8.63;;;537.60;2406.40;;;;;;5094066;28;20112;-78
2023/08/06 06:10:25;;;;;;;9.90;7.72;;;537.60;2406.40;;;;;;5094131;28;20038;-79
2023/08/06 06:12:51;;;;;;;10.40;8.85;;;537.60;2406.40;;;;;;5094940;28;20028;-79
2023/08/06 06:15:16;;;;;;;13.93;9.48;;;537.60;2406.40;;;;;;5093785;28;20028;-78
2023/08/06 06:17:42;;;;;;;12.02;9.32;;;512.90;2380.80;;;;;;5093909;28;20032;-79
2023/08/06 06:20:08;;;;;;;13.07;8.25;;;512.90;2380.80;;;;;;5094016;28;20464;-78
2023/08/06 06:22:34;;;;;;;8.82;7.78;;;537.60;2406.40;;;;;;5095203;28;20070;-78
2023/08/06 06:25:00;;;;;;;8.98;8.05;;;537.60;2406.40;;;;;;5093915;28;20028;-77
2023/08/06 06:27:25;;;;;;;9.75;8.00;;;537.80;2406.40;;;;;;5095299;28;20384;-78
2023/08/06 06:29:52;;;;;;;9.52;7.25;;;538.10;2406.40;;;;;;5093642;28;20059;-80
2023/08/06 06:32:18;;;;;;;8.82;7.38;;;538.10;2406.40;;;;;;5093788;28;20047;-77
2023/08/06 06:34:43;;;;;;;8.48;7.63;;;538.20;2406.40;;;;;;5093604;28;20444;-79
2023/08/06 06:37:09;;;;;;;7.38;6.60;;;538.10;2406.40;;;;;;5093229;28;20165;-80
2023/08/06 06:39:35;;;;;;;11.25;7.38;;;538.10;2406.40;;;;;;5093677;28;20039;-81
2023/08/06 06:42:01;;;;;;;12.32;7.55;;;538.10;2406.40;;;;;;5093552;28;20027;-78
2023/08/06 06:44:26;;;;;;;10.18;7.32;;;538.40;2406.40;;;;;;5094395;28;20031;-79
2023/08/06 06:46:52;;;;;;;9.15;7.20;;;538.50;2406.40;;;;;;5093757;28;20059;-79
2023/08/06 06:49:18;;;;;;;8.60;7.32;;;563.30;2432.00;;;;;;5093224;28;20073;-80
2023/08/06 06:51:44;;;;;;;9.07;7.00;;;563.40;2432.00;;;;;;5094263;28;20028;-78
2023/08/06 06:54:10;;;;;;;10.05;6.50;;;563.60;2432.00;;;;;;5093521;28;20020;-77
2023/08/06 06:56:35;;;;;;;11.45;7.15;;;563.60;2432.00;;;;;;5091466;28;20448;-78
2023/08/06 06:59:01;;;;;;;11.93;6.50;;;563.70;2432.00;;;;;;5074219;28;20024;-79
2023/08/06 07:01:27;;;;;;;8.48;5.95;;;563.80;2432.00;;;;;;5086902;28;20035;-78
2023/08/06 07:03:53;;;;;;;8.73;6.35;;;563.80;2432.00;;;;;;5094068;28;20032;-77
2023/08/06 07:06:18;;;;;;;7.25;5.93;;;563.80;2432.00;;;;;;5092878;28;20119;-79
2023/08/06 07:08:45;;;;;;;6.63;5.35;;;563.80;2432.00;;;;;;5093085;28;20024;-81
2023/08/06 07:11:11;;;;;;;7.25;5.50;;;563.90;2432.00;;;;;;5090378;28;20029;-78
2023/08/06 07:13:37;;;;;;;7.25;6.50;;;564.00;2432.00;;;;;;5089228;28;20048;-78
2023/08/06 07:16:03;;;;;;;10.98;6.25;;;564.10;2432.00;;;;;;5072315;28;20020;-81
2023/08/06 07:18:29;;;;;;;8.32;5.55;;;588.80;2432.00;;;;;;5072369;28;20028;-78
2023/08/06 07:20:55;;;;;;;9.52;5.15;;;589.10;2432.00;;;;;;5072636;28;20033;-78
2023/08/06 07:23:22;;;;;;;7.82;5.90;;;589.40;2432.00;;;;;;5072652;28;20029;-79
2023/08/06 07:25:48;;;;;;;10.10;5.75;;;589.40;2432.00;;;;;;5072313;28;20028;-79
2023/08/06 07:28:14;;;;;;;7.47;5.40;;;589.30;2432.00;;;;;;5073775;28;20029;-79
2023/08/06 07:30:41;;;;;;;9.27;5.63;;;589.10;2432.00;;;;;;5072527;28;20071;-82
2023/08/06 07:33:06;;;;;;;13.00;5.90;;;589.00;2432.00;;;;;;5072123;28;20049;-80
2023/08/06 07:35:33;;;;;;;7.88;5.80;;;589.10;2432.00;;;;;;5072462;28;20071;-82
2023/08/06 07:37:59;;;;;;;10.63;5.30;;;589.00;2432.00;;;;;;5072652;28;20040;-80
2023/08/06 07:40:25;;;;;;;8.32;6.07;;;588.90;2432.00;;;;;;5072128;28;20435;-80
2023/08/06 07:42:52;;;;;;;6.88;5.85;;;589.00;2432.00;;;;;;5074055;28;20020;-79
2023/08/06 07:45:19;;;;;;;7.53;5.03;;;588.90;2432.00;;;;;;5072000;28;20027;-78
2023/08/06 07:47:45;;;;;;;9.18;5.78;;;589.00;2432.00;;;;;;5072474;28;20035;-80
2023/08/06 07:50:11;;;;;;;11.30;5.28;;;589.00;2432.00;;;;;;5072074;28;20024;-82
2023/08/06 07:52:36;;;;;;;7.45;5.50;;;589.20;2432.00;;;;;;5072095;28;20024;-78
2023/08/06 07:55:04;;;;;;;7.63;5.43;;;589.40;2432.00;;;;;;5072329;28;20077;-80
2023/08/06 07:57:34;;;;;;;7.10;5.40;;;589.50;2432.00;;;;;;5075734;28;20563;-80
2023/08/06 08:00:00;;;;;;;7.20;5.32;;;589.60;2432.00;;;;;;5076072;28;20020;-80
2023/08/06 08:02:27;;;;;;;5.78;4.97;;;589.70;2432.00;;;;;;5075716;28;20065;-82
2023/08/06 08:04:53;;;;;;;6.43;5.18;;;589.70;2432.00;;;;;;5076084;28;20025;-83
2023/08/06 08:07:19;;;;;;;8.45;5.63;;;614.50;2432.00;;;;;;5076269;28;20039;-80
2023/08/06 08:09:44;;;;;;;12.13;5.85;;;614.50;2432.00;;;;;;5076247;28;20051;-81
2023/08/06 08:12:10;;;;;;;11.02;7.85;;;614.80;2432.00;;;;;;5078546;28;20472;-80
2023/08/06 08:14:36;;;;;;;7.25;6.13;;;615.00;2432.00;;;;;;5075569;28;20415;-81
2023/08/06 08:17:05;;;;;;;8.70;5.22;;;615.20;2432.00;;;;;;5077255;28;20040;-80
2023/08/06 08:19:34;;;;;;;8.85;5.57;;;615.00;2432.00;;;;;;5075972;28;20028;-80
2023/08/06 08:22:00;;;;;;;10.48;5.82;;;640.00;2432.00;;;;;;5075689;28;20061;-82
2023/08/06 08:24:26;;;;;;;10.68;6.05;;;640.10;2432.00;;;;;;5076054;28;20078;-80
2023/08/06 08:26:54;;;;;;;6.72;4.53;;;640.10;2432.00;;;;;;5075893;28;20032;-81
2023/08/06 08:29:21;;;;;;;8.13;5.85;;;615.30;2432.00;;;;;;5075534;28;20035;-81
2023/08/06 08:31:49;;;;;;;7.28;5.45;;;615.10;2432.00;;;;;;5075889;28;20024;-81
2023/08/06 08:34:15;;;;;;;8.77;4.97;;;614.90;2432.00;;;;;;5075568;28;20031;-81
2023/08/06 08:36:41;;;;;;;7.65;5.20;;;615.00;2432.00;;;;;;5075685;28;20465;-80
2023/08/06 08:39:07;;;;;;;7.55;4.78;;;615.10;2432.00;;;;;;5075776;28;20025;-82
2023/08/06 08:41:33;;;;;;;10.73;5.60;;;640.00;2432.00;;;;;;5075350;28;20469;-80
2023/08/06 08:44:00;;;;;;;7.35;5.30;;;640.00;2432.00;;;;;;5075648;28;20024;-81
2023/08/06 08:46:33;;;;;;;7.57;5.10;;;640.00;2432.00;;;;;;5075856;28;20529;-81
2023/08/06 08:48:59;;;;;;;6.57;5.40;;;640.10;2432.00;;;;;;5076562;28;20016;-83
2023/08/06 08:51:27;;;;;;;9.65;5.80;;;640.20;2432.00;;;;;;5076899;28;20100;-83
2023/08/06 08:53:56;;;;;;;8.00;5.70;;;640.70;2432.00;;;;;;5075894;28;20465;-83
2023/08/06 08:56:22;;;;;;;8.20;6.18;;;640.50;2432.00;;;;;;5075631;28;20032;-81
2023/08/06 08:58:48;;;;;;;7.90;5.40;;;640.90;2432.00;;;;;;5077207;28;20039;-84
2023/08/06 09:01:15;;;;;;;8.32;6.28;;;640.70;2432.00;;;;;;5075875;28;20025;-84
2023/08/06 09:03:44;;;;;;;9.88;6.15;;;665.70;2432.00;;;;;;5076892;28;20033;-84
2023/08/06 09:06:12;;;;;;;8.02;5.57;;;665.80;2432.00;;;;;;5094831;28;20019;-82
2023/08/06 09:08:53;;;;;;;8.48;5.85;;;665.70;2432.00;;;;;;5084073;28;20025;-85
2023/08/06 09:11:20;;;;;;;7.22;6.07;;;640.90;2432.00;;;;;;5076600;28;20024;-84
2023/08/06 09:13:47;;;;;;;9.65;6.20;;;640.50;2432.00;;;;;;5075134;28;20135;-85
2023/08/06 09:16:13;;;;;;;7.10;5.90;;;640.50;2432.00;;;;;;5075025;28;20041;-84
2023/08/06 09:18:40;;;;;;;8.10;6.18;;;640.50;2432.00;;;;;;5075394;28;20029;-84
2023/08/06 09:21:05;;;;;;;9.52;6.50;;;640.60;2432.00;;;;;;5076453;28;20020;-84
2023/08/06 09:23:33;;;;;;;10.30;6.72;;;640.50;2432.00;;;;;;5074952;28;20066;-84
2023/08/06 09:25:59;;;;;;;7.00;6.05;;;640.60;2432.00;;;;;;5075025;28;20025;-85
2023/08/06 09:28:37;;;;;;;8.52;6.53;;;640.50;2432.00;;;;;;5074824;28;20055;-84
2023/08/06 09:31:02;;;;;;;9.13;6.45;;;640.60;2432.00;;;;;;5074667;28;20452;-83
2023/08/06 09:33:29;;;;;;;9.20;6.70;;;640.50;2432.00;;;;;;5074900;28;20039;-82
2023/08/06 09:35:55;;;;;;;8.00;7.20;;;640.80;2432.00;;;;;;5075717;28;20090;-82
2023/08/06 09:38:21;;;;;;;10.43;6.50;;;640.70;2432.00;;;;;;5074628;28;20024;-83
2023/08/06 09:40:47;;;;;;;8.90;6.88;;;640.70;2432.00;;;;;;5076068;28;20036;-84
2023/08/06 09:43:13;;;;;;;11.38;6.70;;;640.70;2432.00;;;;;;5074603;28;20065;-84
2023/08/06 09:45:39;;;;;;;7.90;7.10;;;640.50;2432.00;;;;;;5075693;28;20364;-85
2023/08/06 09:48:07;;;;;;;9.13;7.03;;;640.50;2432.00;;;;;;5074617;28;20039;-84
2023/08/06 09:50:36;;;;;;;8.35;6.47;;;640.50;2432.00;;;;;;5074631;28;20028;-82
2023/08/06 09:53:05;;;;;;;10.60;7.30;;;640.50;2432.00;;;;;;5074397;28;20498;-84
2023/08/06 09:55:33;;;;;;;8.23;6.28;;;640.50;2432.00;;;;;;5075683;28;20025;-83
2023/08/06 09:58:00;;;;;;;8.50;6.70;;;640.40;2432.00;;;;;;5074439;28;20033;-85
2023/08/06 10:00:26;;;;;;;7.30;6.13;;;640.50;2432.00;;;;;;5074282;28;20384;-85
2023/08/06 10:02:56;;;;;;;10.93;6.72;;;640.40;2432.00;;;;;;5074157;28;20091;-81
2023/08/06 10:05:23;;;;;;;9.60;7.50;;;640.40;2432.00;;;;;;5073879;28;20137;-81
2023/08/06 10:07:53;;;;;;;7.57;5.78;;;640.40;2432.00;;;;;;5075473;28;20036;-82
2023/08/06 10:10:19;;;;;;;9.43;6.43;;;640.40;2432.00;;;;;;5073907;28;20119;-81
2023/08/06 10:12:55;;;;;;;10.60;6.28;;;640.40;2432.00;;;;;;5073374;28;20028;-82
2023/08/06 10:15:25;;;;;;;7.78;5.72;;;640.50;2432.00;;;;;;5078015;28;20028;-80
2023/08/06 10:17:54;;;;;;;7.15;6.00;;;640.70;2432.00;;;;;;5093591;28;20081;-79
2023/08/06 10:20:22;;;;;;;7.57;6.15;;;640.90;2432.00;;;;;;5092534;28;20027;-79
2023/08/06 10:23:04;;;;;;;9.95;8.05;;;665.90;2432.00;;;;;;5092245;28;20487;-82
2023/08/06 10:25:40;;;;;;;8.37;7.50;;;666.30;2432.00;;;;;;5095091;28;20031;-80
2023/08/06 10:28:17;;;;;;;8.60;7.38;;;691.20;2432.00;;;;;;5095123;28;20032;-79
2023/08/06 10:30:46;;;;;;;9.98;7.25;;;691.60;2432.00;;;;;;5093709;28;20060;-81
2023/08/06 10:33:12;;;;;;;9.18;6.05;;;691.90;2432.00;;;;;;5093460;28;20028;-80
2023/08/06 10:35:44;;;;;;;8.38;6.32;;;692.00;2432.00;;;;;;5093512;28;20046;-80
2023/08/06 10:38:18;;;;;;;9.13;5.80;;;691.90;2432.00;;;;;;5093716;28;20032;-81
2023/08/06 10:41:02;;;;;;;8.32;6.07;;;692.10;2432.00;;;;;;5093440;28;20349;-79
2023/08/06 10:43:29;;;;;;;7.53;5.07;;;717.10;2432.00;;;;;;5093142;28;20517;-81
2023/08/06 10:45:57;;;;;;;8.20;5.68;;;717.10;2432.00;;;;;;5093068;28;20042;-80
2023/08/06 10:48:32;;;;;;;8.13;5.72;;;;;;;;;;5094261;28;20020;-80
2023/08/06 10:50:59;;;;;;;5.88;5.15;;;;;;;;;;5094609;28;20364;-80
2023/08/06 10:53:25;;;;;;;6.43;5.65;;;717.20;2432.00;;;;;;5093344;28;20024;-77
2023/08/06 10:55:51;;;;;;;6.68;5.28;;;717.20;2432.00;;;;;;5091509;28;20053;-79
2023/08/06 10:58:17;;;;;;;5.65;4.47;;;717.70;2380.80;;;;;;5093132;28;20043;-81
2023/08/06 11:00:42;;;;;;;5.30;4.05;;;717.60;2355.20;;;;;;5094240;28;20028;-79
2023/08/06 11:03:09;;;;;;;6.45;4.20;;;742.40;2355.20;;;;;;5093760;28;20118;-79
2023/08/06 11:05:35;;;;;;;6.32;5.07;;;742.40;2380.80;;;;;;5093111;28;20024;-78
2023/08/06 11:08:01;;;;;;;7.05;5.20;;;742.40;2406.40;;;;;;5094301;28;20028;-77
2023/08/06 11:10:27;;;;;;;8.45;4.68;;;742.70;2432.00;;;;;;5093162;28;20486;-79
2023/08/06 11:12:53;;;;;;;9.70;5.22;;;742.60;2380.80;;;;;;5106104;28;20050;-79
2023/08/06 11:15:20;;;;;;;7.90;5.00;;;742.80;2355.20;;;;;;5093751;28;20468;-79
2023/08/06 11:17:47;;;;;;;5.90;4.63;;;743.00;2329.60;;;;;;5092877;28;20044;-81
2023/08/06 11:20:13;;;;;;;5.60;4.50;;;743.30;2278.40;;;;;;5092953;28;20119;-80
2023/08/06 11:22:39;;;;;;;6.68;4.30;;;743.30;2201.60;;;;;;5092719;28;20055;-79
2023/08/06 11:25:06;;;;;;;5.65;4.18;;;743.10;2201.60;;;;;;5092909;28;20511;-80
2023/08/06 11:27:32;;;;;;;5.78;3.95;;;743.00;2278.40;;;;;;5093014;28;20024;-79
2023/08/06 11:29:58;;;;;;;5.25;3.85;;;743.00;2227.20;;;;;;5093346;28;20033;-82
2023/08/06 11:32:24;;;;;;;6.32;4.05;;;742.80;2252.80;;;;;;5093334;28;20109;-79
2023/08/06 11:34:50;;;;;;;6.55;3.90;;;743.10;2252.80;;;;;;5092868;28;20020;-79
2023/08/06 11:37:16;;;;;;;6.05;3.92;;;743.10;2150.40;;;;;;5092420;28;20376;-82
2023/08/06 11:39:48;;;;;;;6.05;5.00;;;742.80;2201.60;;;;;;5092773;28;20024;-80
2023/08/06 11:42:14;;;;;;;;;;;742.40;2252.80;;;;;;5093226;28;20024;-79
2023/08/06 11:44:45;;;;;;;8.32;5.80;;;717.50;2278.40;;;;;;5092062;28;20382;-80
2023/08/06 11:47:14;;;;;;;8.35;6.18;;;717.40;2329.60;;;;;;5093014;28;20493;-79
2023/08/06 11:49:47;;;;;;;6.90;5.25;;;717.20;2304.00;;;;;;5092675;28;20028;-80
2023/08/06 11:52:19;;;;;;;8.43;5.88;;;716.90;2304.00;;;;;;5093386;28;20035;-80
2023/08/06 11:54:46;;;;;;;6.28;4.68;;;692.10;2329.60;;;;;;5092584;28;20578;-79
2023/08/06 11:57:12;;;;;;;6.80;5.60;;;691.90;2355.20;;;;;;5111653;28;20028;-76
2023/08/06 11:59:38;;;;;;;9.10;6.22;;;691.70;2380.80;;;;;;5093495;28;20533;-79
2023/08/06 12:02:07;;;;;;;8.55;5.97;;;691.70;2380.80;;;;;;5092469;28;20065;-76
2023/08/06 12:05:00;;;;;;;8.93;6.55;;;691.50;2380.80;;;;;;5092213;28;20024;-77
2023/08/06 12:07:30;;;;;;;7.13;5.72;;;691.60;2432.00;;;;;;5092576;28;20070;-77
2023/08/06 12:09:57;;;;;;;8.45;6.70;;;691.60;2432.00;;;;;;5093697;28;20028;-79
2023/08/06 12:12:23;;;;;;;10.23;6.95;;;691.40;2432.00;;;;;;5092199;28;20478;-78
2023/08/06 12:14:49;;;;;;;7.18;6.47;;;691.40;2432.00;;;;;;5092187;28;20044;-78